createdAt,value
2023-04-27T00:02:00.176Z,10.34
2023-04-27T00:04:28.225Z,10.33
2023-04-27T00:06:56.248Z,10.33
2023-04-27T00:09:25.731Z,10.30
2023-04-27T00:11:53.451Z,10.28
2023-04-27T00:14:21.562Z,10.21
2023-04-27T00:16:49.485Z,10.19
2023-04-27T00:19:17.330Z,10.02
2023-04-27T00:21:45.084Z,10.11
2023-04-27T00:24:12.866Z,10.10
2023-04-27T00:26:42.151Z,10.07
2023-04-27T00:29:09.851Z,9.97
2023-04-27T00:31:37.658Z,10.01
2023-04-27T00:34:05.811Z,9.97
2023-04-27T00:36:34.827Z,9.96
2023-04-27T00:39:04.247Z,9.91
2023-04-27T00:41:33.151Z,9.79
2023-04-27T00:44:03.118Z,9.91
2023-04-27T00:46:31.494Z,9.87
2023-04-27T00:48:59.871Z,9.94
2023-04-27T00:51:30.087Z,9.93
2023-04-27T00:53:58.818Z,10.05
2023-04-27T00:56:26.570Z,10.11
2023-04-27T00:58:55.911Z,10.11
2023-04-27T01:01:25.120Z,10.08
2023-04-27T01:03:53.117Z,10.05
2023-04-27T01:06:20.976Z,10.01
2023-04-27T01:08:48.736Z,9.97
2023-04-27T01:11:16.647Z,9.94
2023-04-27T01:13:44.433Z,9.94
2023-04-27T01:16:12.201Z,9.66
2023-04-27T01:18:41.641Z,9.96
2023-04-27T01:21:09.404Z,9.88
2023-04-27T01:23:38.925Z,9.91
2023-04-27T01:26:06.724Z,9.95
2023-04-27T01:28:34.572Z,9.85
2023-04-27T01:31:02.339Z,9.90
2023-04-27T01:33:30.120Z,9.91
2023-04-27T01:35:57.931Z,9.86
2023-04-27T01:38:28.533Z,9.81
2023-04-27T01:41:02.103Z,9.74
2023-04-27T01:43:30.592Z,9.67
2023-04-27T01:45:58.303Z,9.61
2023-04-27T01:48:26.049Z,9.50
2023-04-27T01:50:53.953Z,9.51
2023-04-27T01:53:21.916Z,9.53
2023-04-27T01:55:49.709Z,9.48
2023-04-27T01:58:18.817Z,9.45
2023-04-27T02:00:46.732Z,9.39
2023-04-27T02:03:14.605Z,9.36
2023-04-27T02:05:42.859Z,9.26
2023-04-27T02:08:10.725Z,9.17
2023-04-27T02:10:39.607Z,9.21
2023-04-27T02:13:07.490Z,9.17
2023-04-27T02:15:36.628Z,9.12
2023-04-27T02:18:05.039Z,9.10
2023-04-27T02:20:33.366Z,9.08
2023-04-27T02:23:02.176Z,9.03
2023-04-27T02:25:30.476Z,9.02
2023-04-27T02:27:58.243Z,8.82
2023-04-27T02:30:26.433Z,8.92
2023-04-27T02:33:00.889Z,8.91
2023-04-27T02:35:28.904Z,8.96
2023-04-27T02:37:56.712Z,8.96
2023-04-27T02:40:25.311Z,8.92
2023-04-27T02:42:53.146Z,8.89
2023-04-27T02:45:20.917Z,8.88
2023-04-27T02:47:48.968Z,8.87
2023-04-27T02:50:18.551Z,8.82
2023-04-27T02:52:46.283Z,8.79
2023-04-27T02:55:14.510Z,8.73
2023-04-27T02:57:42.429Z,8.74
2023-04-27T03:00:11.665Z,8.79
2023-04-27T03:02:39.597Z,8.79
2023-04-27T03:05:08.464Z,8.75
2023-04-27T03:07:37.599Z,8.72
2023-04-27T03:10:06.038Z,8.55
2023-04-27T03:12:33.781Z,8.66
2023-04-27T03:15:01.693Z,8.53
2023-04-27T03:17:29.685Z,8.63
2023-04-27T03:19:57.469Z,8.62
2023-04-27T03:22:25.339Z,8.63
2023-04-27T03:24:54.436Z,8.65
2023-04-27T03:27:22.227Z,8.51
2023-04-27T03:29:52.767Z,8.58
2023-04-27T03:32:20.918Z,8.60
2023-04-27T03:34:48.692Z,8.59
2023-04-27T03:37:17.249Z,8.49
2023-04-27T03:39:45.162Z,8.58
2023-04-27T03:42:14.925Z,8.55
2023-04-27T03:44:42.698Z,8.49
2023-04-27T03:47:10.513Z,8.49
2023-04-27T03:49:40.111Z,8.46
2023-04-27T03:52:08.948Z,8.45
2023-04-27T03:54:37.320Z,8.43
2023-04-27T03:57:05.322Z,8.41
2023-04-27T03:59:34.486Z,8.32
2023-04-27T04:02:03.925Z,8.34
2023-04-27T04:04:32.278Z,8.33
2023-04-27T04:07:00.196Z,8.34
2023-04-27T04:09:28.087Z,8.44
2023-04-27T04:11:56.078Z,8.42
2023-04-27T04:14:23.878Z,8.51
2023-04-27T04:16:53.999Z,8.55
2023-04-27T04:19:22.355Z,8.57
2023-04-27T04:21:50.699Z,8.56
2023-04-27T04:24:19.940Z,8.55
2023-04-27T04:26:48.633Z,8.48
2023-04-27T04:29:16.805Z,8.45
2023-04-27T04:31:45.136Z,8.49
2023-04-27T04:34:14.522Z,8.45
2023-04-27T04:36:42.541Z,8.39
2023-04-27T04:39:12.645Z,8.18
2023-04-27T04:41:40.681Z,8.36
2023-04-27T04:44:10.929Z,8.43
2023-04-27T04:46:38.889Z,8.50
2023-04-27T04:49:07.402Z,7.48
2023-04-27T04:51:36.621Z,8.53
2023-04-27T04:54:04.656Z,8.57
2023-04-27T04:56:32.436Z,8.56
2023-04-27T04:59:02.375Z,8.61
2023-04-27T05:01:32.474Z,8.65
2023-04-27T05:04:00.530Z,8.64
2023-04-27T05:06:28.346Z,8.64
2023-04-27T05:08:57.419Z,8.60
2023-04-27T05:11:25.176Z,8.52
2023-04-27T05:13:52.988Z,8.71
2023-04-27T05:16:21.142Z,8.73
2023-04-27T05:18:49.083Z,8.78
2023-04-27T05:21:17.634Z,8.58
2023-04-27T05:23:45.372Z,8.75
2023-04-27T05:26:15.190Z,8.70
2023-04-27T05:28:43.270Z,8.81
2023-04-27T05:31:11.210Z,8.77
2023-04-27T05:33:39.003Z,8.85
2023-04-27T05:36:07.180Z,8.86
2023-04-27T05:38:39.953Z,8.89
2023-04-27T05:41:07.894Z,8.91
2023-04-27T05:43:38.608Z,8.92
2023-04-27T05:46:06.677Z,8.93
2023-04-27T05:48:34.991Z,8.97
2023-04-27T05:51:03.890Z,8.97
2023-04-27T05:53:31.807Z,9.02
2023-04-27T05:56:01.003Z,9.07
2023-04-27T05:58:29.046Z,9.08
2023-04-27T06:00:58.246Z,9.12
2023-04-27T06:03:26.509Z,9.09
2023-04-27T06:05:59.071Z,9.20
2023-04-27T06:08:27.087Z,9.23
2023-04-27T06:10:55.378Z,9.21
2023-04-27T06:13:23.387Z,9.29
2023-04-27T06:15:51.254Z,9.31
2023-04-27T06:18:20.438Z,9.16
2023-04-27T06:20:48.313Z,9.37
2023-04-27T06:23:16.092Z,9.38
2023-04-27T06:25:45.364Z,9.42
2023-04-27T06:28:13.047Z,9.44
2023-04-27T06:30:40.821Z,9.45
2023-04-27T06:33:08.537Z,9.49
2023-04-27T06:35:37.684Z,9.51
2023-04-27T06:38:07.564Z,9.57
2023-04-27T06:40:37.023Z,9.58
2023-04-27T06:43:05.234Z,9.63
2023-04-27T06:45:33.016Z,9.46
2023-04-27T06:48:00.997Z,9.58
2023-04-27T06:50:29.270Z,9.59
2023-04-27T06:52:58.482Z,9.56
2023-04-27T06:55:26.267Z,9.71
2023-04-27T06:57:53.949Z,9.79
2023-04-27T07:00:22.987Z,9.67
2023-04-27T07:02:51.798Z,9.85
2023-04-27T07:05:19.857Z,9.89
2023-04-27T07:07:47.658Z,9.95
2023-04-27T07:10:16.802Z,9.99
2023-04-27T07:12:44.678Z,10.01
2023-04-27T07:15:12.478Z,10.05
2023-04-27T07:17:40.292Z,10.12
2023-04-27T07:20:09.487Z,10.15
2023-04-27T07:22:37.458Z,10.23
2023-04-27T07:25:06.024Z,10.28
2023-04-27T07:27:35.644Z,10.31
2023-04-27T07:30:03.467Z,10.36
2023-04-27T07:32:31.326Z,10.40
2023-04-27T07:34:59.573Z,10.30
2023-04-27T07:37:27.423Z,10.48
2023-04-27T07:39:55.132Z,10.49
2023-04-27T07:42:23.593Z,10.54
2023-04-27T07:44:54.083Z,10.49
2023-04-27T07:47:22.019Z,10.51
2023-04-27T07:49:49.764Z,10.55
2023-04-27T07:52:17.518Z,10.52
2023-04-27T07:54:45.494Z,10.64
2023-04-27T07:57:13.256Z,10.65
2023-04-27T07:59:41.186Z,10.74
2023-04-27T08:02:18.449Z,10.80
2023-04-27T08:04:48.042Z,10.76
2023-04-27T08:07:16.474Z,10.83
2023-04-27T08:09:44.328Z,10.87
2023-04-27T08:12:12.060Z,10.92
2023-04-27T08:14:39.801Z,10.94
2023-04-27T08:17:07.693Z,11.00
2023-04-27T08:19:36.946Z,11.07
2023-04-27T08:22:04.700Z,11.09
2023-04-27T08:24:32.474Z,11.14
2023-04-27T08:27:00.235Z,11.16
2023-04-27T08:29:29.054Z,11.19
2023-04-27T08:32:01.233Z,11.24
2023-04-27T08:34:29.364Z,11.30
2023-04-27T08:36:58.652Z,11.25
2023-04-27T08:39:26.398Z,11.30
2023-04-27T08:41:54.450Z,11.43
2023-04-27T08:44:22.322Z,11.42
2023-04-27T08:46:50.793Z,11.37
2023-04-27T08:49:19.125Z,11.43
2023-04-27T08:51:47.008Z,11.35
2023-04-27T08:54:16.236Z,11.43
2023-04-27T08:56:43.976Z,11.41
2023-04-27T08:59:17.259Z,11.51
2023-04-27T09:01:46.787Z,11.62
2023-04-27T09:04:14.967Z,11.63
2023-04-27T09:06:43.163Z,11.51
2023-04-27T09:09:11.361Z,11.60
2023-04-27T09:11:40.847Z,11.66
2023-04-27T09:14:17.689Z,11.66
2023-04-27T09:16:45.733Z,11.77
2023-04-27T09:19:13.857Z,11.83
2023-04-27T09:21:43.086Z,11.92
2023-04-27T09:24:12.313Z,11.90
2023-04-27T09:26:42.539Z,11.97
2023-04-27T09:29:10.446Z,12.03
2023-04-27T09:31:38.241Z,12.07
2023-04-27T09:34:06.274Z,12.10
2023-04-27T09:36:34.157Z,12.15
2023-04-27T09:39:04.607Z,12.19
2023-04-27T09:41:33.308Z,12.13
2023-04-27T09:44:03.346Z,12.27
2023-04-27T09:46:34.509Z,12.38
2023-04-27T09:49:05.539Z,12.38
2023-04-27T09:51:34.843Z,12.43
2023-04-27T09:54:05.111Z,12.52
2023-04-27T09:56:43.394Z,12.67
2023-04-27T09:59:32.354Z,12.66
2023-04-27T10:02:09.985Z,12.89
2023-04-27T10:05:03.969Z,12.93
2023-04-27T10:07:33.298Z,12.82
2023-04-27T10:10:04.269Z,12.95
2023-04-27T10:12:36.221Z,13.08
2023-04-27T10:15:15.348Z,13.15
2023-04-27T10:17:49.635Z,13.19
2023-04-27T10:20:17.747Z,13.54
2023-04-27T10:22:47.731Z,13.71
2023-04-27T10:25:18.834Z,13.87
2023-04-27T10:27:51.913Z,13.89
2023-04-27T10:30:22.255Z,14.00
2023-04-27T10:32:54.149Z,14.19
2023-04-27T10:35:23.148Z,14.32
2023-04-27T10:37:52.198Z,14.63
2023-04-27T10:40:19.925Z,14.82
2023-04-27T10:42:49.516Z,15.26
2023-04-27T10:45:31.430Z,15.37
2023-04-27T10:48:01.584Z,15.42
2023-04-27T10:50:30.114Z,15.70
2023-04-27T10:53:02.539Z,15.89
2023-04-27T10:55:31.430Z,16.12
2023-04-27T10:58:00.229Z,15.82
2023-04-27T11:00:31.542Z,15.45
2023-04-27T11:03:12.354Z,14.93
2023-04-27T11:05:40.218Z,14.90
2023-04-27T11:08:09.070Z,15.02
2023-04-27T11:10:41.149Z,15.46
2023-04-27T11:13:11.335Z,15.65
2023-04-27T11:15:51.709Z,16.11
2023-04-27T11:18:21.611Z,16.46
2023-04-27T11:20:52.341Z,16.59
2023-04-27T11:23:27.351Z,16.73
2023-04-27T11:25:55.855Z,16.82
2023-04-27T11:28:24.330Z,16.67
2023-04-27T11:31:04.407Z,16.79
2023-04-27T11:33:32.552Z,17.01
2023-04-27T11:36:01.093Z,17.22
2023-04-27T11:38:34.688Z,17.22
2023-04-27T11:41:06.121Z,17.21
2023-04-27T11:43:37.671Z,17.33
2023-04-27T11:46:08.208Z,17.30
2023-04-27T11:48:37.552Z,17.52
2023-04-27T11:51:06.017Z,17.50
2023-04-27T11:53:36.512Z,17.57
2023-04-27T11:56:06.236Z,17.79
2023-04-27T11:58:35.223Z,17.84
2023-04-27T12:01:03.939Z,17.84
2023-04-27T12:03:33.339Z,18.18
2023-04-27T12:06:16.194Z,18.26
2023-04-27T12:08:49.283Z,18.27
2023-04-27T12:11:17.068Z,18.12
2023-04-27T12:13:44.888Z,17.78
2023-04-27T12:16:13.375Z,17.92
2023-04-27T12:18:42.575Z,18.09
2023-04-27T12:21:10.420Z,18.60
2023-04-27T12:23:38.179Z,18.90
2023-04-27T12:26:06.217Z,18.98
2023-04-27T12:28:33.975Z,18.98
2023-04-27T12:31:04.239Z,19.19
2023-04-27T12:33:32.219Z,18.98
2023-04-27T12:36:01.327Z,19.09
2023-04-27T12:38:29.282Z,19.41
2023-04-27T12:40:57.142Z,19.67
2023-04-27T12:43:24.879Z,19.98
2023-04-27T12:45:52.723Z,20.23
2023-04-27T12:48:20.734Z,20.51
2023-04-27T12:50:48.559Z,20.22
2023-04-27T12:53:17.684Z,19.84
2023-04-27T12:55:46.923Z,19.59
2023-04-27T12:58:14.718Z,19.30
2023-04-27T13:00:42.788Z,19.41
2023-04-27T13:03:10.748Z,19.19
2023-04-27T13:05:38.547Z,18.99
2023-04-27T13:08:06.595Z,19.07
2023-04-27T13:10:36.552Z,19.33
2023-04-27T13:13:04.624Z,19.70
2023-04-27T13:15:32.394Z,19.80
2023-04-27T13:18:01.785Z,19.91
2023-04-27T13:20:29.602Z,20.14
2023-04-27T13:22:57.386Z,20.76
2023-04-27T13:25:25.098Z,21.20
2023-04-27T13:27:54.252Z,21.56
2023-04-27T13:30:22.194Z,21.84
2023-04-27T13:32:49.943Z,21.87
2023-04-27T13:35:17.780Z,21.81
2023-04-27T13:37:45.687Z,21.70
2023-04-27T13:40:13.852Z,21.91
2023-04-27T13:42:41.703Z,21.91
2023-04-27T13:45:11.676Z,21.89
2023-04-27T13:47:40.538Z,21.85
2023-04-27T13:50:10.073Z,21.75
2023-04-27T13:52:39.163Z,21.52
2023-04-27T13:55:09.188Z,21.26
2023-04-27T13:57:37.258Z,20.90
2023-04-27T14:00:07.877Z,20.83
2023-04-27T14:02:37.586Z,20.60
2023-04-27T14:05:06.446Z,20.36
2023-04-27T14:07:35.632Z,20.22
2023-04-27T14:10:03.826Z,20.05
2023-04-27T14:12:31.980Z,19.95
2023-04-27T14:14:59.731Z,19.63
2023-04-27T14:17:27.651Z,19.50
2023-04-27T14:19:56.708Z,19.24
2023-04-27T14:22:24.553Z,19.11
2023-04-27T14:24:52.366Z,19.21
2023-04-27T14:27:20.413Z,19.13
2023-04-27T14:29:48.121Z,18.89
2023-04-27T14:32:16.057Z,18.89
2023-04-27T14:34:43.841Z,18.94
2023-04-27T14:37:13.004Z,18.80
2023-04-27T14:39:42.285Z,18.63
2023-04-27T14:42:11.514Z,18.50
2023-04-27T14:44:39.173Z,18.50
2023-04-27T14:47:07.038Z,18.54
2023-04-27T14:49:34.665Z,18.55
2023-04-27T14:52:04.712Z,18.45
2023-04-27T14:54:33.909Z,18.43
2023-04-27T14:57:02.036Z,18.45
2023-04-27T14:59:30.052Z,18.43
2023-04-27T15:01:57.821Z,18.45
2023-04-27T15:04:25.676Z,18.43
2023-04-27T15:06:54.918Z,18.52
2023-04-27T15:09:22.728Z,18.41
2023-04-27T15:11:51.849Z,18.33
2023-04-27T15:14:19.616Z,18.21
2023-04-27T15:16:47.376Z,18.24
2023-04-27T15:19:15.426Z,18.36
2023-04-27T15:21:43.283Z,18.24
2023-04-27T15:24:14.224Z,18.23
2023-04-27T15:26:42.472Z,18.38
2023-04-27T15:29:13.697Z,18.42
2023-04-27T15:31:41.768Z,18.33
2023-04-27T15:34:09.505Z,18.33
2023-04-27T15:36:37.337Z,18.19
2023-04-27T15:39:06.330Z,18.22
2023-04-27T15:41:34.946Z,18.13
2023-04-27T15:44:02.709Z,18.13
2023-04-27T15:46:34.128Z,18.01
2023-04-27T15:49:04.010Z,17.98
2023-04-27T15:51:32.328Z,17.98
2023-04-27T15:54:00.268Z,17.97
2023-04-27T15:56:30.500Z,17.97
2023-04-27T15:58:58.725Z,17.80
2023-04-27T16:01:26.592Z,17.77
2023-04-27T16:03:56.560Z,17.79
2023-04-27T16:06:30.353Z,17.72
2023-04-27T16:08:58.120Z,17.67
2023-04-27T16:11:25.800Z,17.56
2023-04-27T16:13:53.521Z,17.46
2023-04-27T16:16:21.346Z,17.37
2023-04-27T16:18:49.107Z,17.41
2023-04-27T16:21:18.151Z,17.38
2023-04-27T16:23:45.820Z,17.35
2023-04-27T16:26:13.549Z,17.32
2023-04-27T16:28:41.402Z,17.23
2023-04-27T16:31:09.408Z,17.31
2023-04-27T16:33:37.224Z,17.28
2023-04-27T16:36:05.500Z,17.31
2023-04-27T16:38:35.173Z,17.32
2023-04-27T16:41:06.838Z,17.29
2023-04-27T16:43:34.710Z,17.30
2023-04-27T16:46:02.556Z,17.25
2023-04-27T16:48:30.564Z,17.19
2023-04-27T16:50:58.618Z,17.16
2023-04-27T16:53:27.081Z,17.08
2023-04-27T16:55:56.172Z,16.97
2023-04-27T16:58:24.193Z,16.90
2023-04-27T17:00:51.928Z,16.90
2023-04-27T17:03:21.537Z,16.92
2023-04-27T17:05:49.355Z,16.87
2023-04-27T17:08:17.082Z,16.87
2023-04-27T17:10:45.507Z,16.84
2023-04-27T17:13:16.441Z,16.80
2023-04-27T17:15:44.250Z,16.69
2023-04-27T17:18:12.061Z,16.61
2023-04-27T17:20:42.158Z,16.54
2023-04-27T17:23:10.075Z,16.49
2023-04-27T17:25:37.842Z,16.44
2023-04-27T17:28:05.886Z,16.36
2023-04-27T17:30:34.925Z,16.41
2023-04-27T17:33:03.519Z,16.38
2023-04-27T17:35:31.646Z,16.35
2023-04-27T17:37:59.382Z,16.28
2023-04-27T17:40:27.273Z,16.24
2023-04-27T17:42:56.465Z,16.17
2023-04-27T17:45:26.347Z,16.17
2023-04-27T17:47:55.731Z,16.05
2023-04-27T17:50:23.516Z,16.02
2023-04-27T17:52:51.483Z,16.03
2023-04-27T17:55:19.393Z,15.96
2023-04-27T17:57:47.250Z,15.74
2023-04-27T18:00:18.065Z,15.88
2023-04-27T18:02:48.148Z,15.87
2023-04-27T18:05:17.535Z,15.83
2023-04-27T18:07:46.571Z,15.83
2023-04-27T18:10:15.003Z,15.79
2023-04-27T18:12:42.716Z,15.69
2023-04-27T18:15:11.391Z,15.71
2023-04-27T18:17:39.208Z,15.68
2023-04-27T18:20:10.160Z,15.65
2023-04-27T18:22:41.122Z,15.54
2023-04-27T18:25:10.670Z,15.48
2023-04-27T18:27:38.631Z,15.47
2023-04-27T18:30:08.764Z,15.43
2023-04-27T18:32:36.650Z,15.43
2023-04-27T18:35:05.621Z,15.40
2023-04-27T18:37:33.529Z,15.39
2023-04-27T18:40:02.763Z,15.36
2023-04-27T18:42:30.656Z,15.39
2023-04-27T18:45:00.773Z,15.40
2023-04-27T18:47:28.885Z,15.33
2023-04-27T18:49:56.599Z,15.29
2023-04-27T18:52:24.366Z,15.34
2023-04-27T18:54:52.081Z,15.28
2023-04-27T18:57:21.132Z,15.28
2023-04-27T18:59:48.937Z,15.22
2023-04-27T19:02:16.718Z,15.21
2023-04-27T19:04:52.879Z,15.20
2023-04-27T19:07:29.684Z,15.04
2023-04-27T19:09:57.414Z,15.13
2023-04-27T19:12:26.626Z,15.12
2023-04-27T19:14:54.434Z,15.13
2023-04-27T19:17:22.426Z,15.03
2023-04-27T19:19:50.393Z,15.07
2023-04-27T19:22:18.091Z,14.86
2023-04-27T19:24:45.875Z,15.00
2023-04-27T19:27:13.962Z,14.95
2023-04-27T19:29:54.210Z,14.92
2023-04-27T19:32:25.204Z,14.88
2023-04-27T19:34:53.289Z,14.86
2023-04-27T19:37:21.664Z,14.82
2023-04-27T19:39:49.521Z,14.74
2023-04-27T19:42:17.445Z,14.67
2023-04-27T19:44:45.189Z,14.74
2023-04-27T19:47:14.370Z,14.66
2023-04-27T19:49:42.115Z,14.68
2023-04-27T19:52:09.896Z,14.62
2023-04-27T19:54:38.322Z,14.61
2023-04-27T19:57:06.271Z,14.58
2023-04-27T19:59:34.089Z,14.54
2023-04-27T20:02:01.942Z,14.53
2023-04-27T20:04:31.279Z,14.53
2023-04-27T20:07:01.058Z,14.56
2023-04-27T20:09:28.828Z,14.55
2023-04-27T20:11:56.625Z,14.51
2023-04-27T20:14:24.884Z,14.46
2023-04-27T20:16:52.781Z,14.42
2023-04-27T20:19:22.640Z,14.34
2023-04-27T20:21:51.816Z,14.42
2023-04-27T20:24:19.546Z,14.36
2023-04-27T20:26:47.450Z,14.30
2023-04-27T20:29:15.182Z,14.34
2023-04-27T20:31:42.991Z,14.32
2023-04-27T20:34:11.241Z,14.28
2023-04-27T20:36:38.995Z,14.21
2023-04-27T20:39:08.980Z,14.17
2023-04-27T20:41:38.514Z,14.13
2023-04-27T20:44:06.319Z,14.16
2023-04-27T20:46:34.134Z,14.15
2023-04-27T20:49:01.875Z,14.16
2023-04-27T20:51:29.768Z,14.13
2023-04-27T20:53:57.625Z,14.13
2023-04-27T20:56:26.939Z,14.12
2023-04-27T20:58:54.646Z,14.03
2023-04-27T21:01:22.402Z,14.06
2023-04-27T21:03:50.326Z,13.95
2023-04-27T21:06:18.186Z,13.90
2023-04-27T21:08:45.986Z,13.84
2023-04-27T21:11:15.097Z,13.77
2023-04-27T21:13:45.713Z,13.66
2023-04-27T21:16:13.557Z,13.66
2023-04-27T21:18:41.289Z,13.69
2023-04-27T21:21:09.046Z,13.70
2023-04-27T21:23:36.727Z,13.72
2023-04-27T21:26:04.570Z,13.67
2023-04-27T21:28:32.530Z,13.69
2023-04-27T21:31:01.720Z,13.70
2023-04-27T21:33:31.659Z,13.73
2023-04-27T21:35:59.582Z,13.70
2023-04-27T21:38:27.355Z,13.53
2023-04-27T21:40:55.076Z,13.69
2023-04-27T21:43:22.895Z,13.72
2023-04-27T21:45:50.700Z,13.72
2023-04-27T21:48:19.775Z,13.73
2023-04-27T21:50:47.694Z,13.67
2023-04-27T21:53:15.810Z,13.68
2023-04-27T21:55:43.685Z,13.68
2023-04-27T21:58:11.595Z,13.65
2023-04-27T22:00:39.649Z,13.65
2023-04-27T22:03:07.856Z,13.66
2023-04-27T22:05:37.649Z,13.61
2023-04-27T22:08:05.501Z,13.56
2023-04-27T22:10:33.227Z,13.56
2023-04-27T22:13:08.200Z,13.56
2023-04-27T22:15:45.853Z,13.61
2023-04-27T22:18:14.318Z,13.62
2023-04-27T22:20:44.370Z,13.63
2023-04-27T22:23:12.114Z,13.56
2023-04-27T22:25:42.533Z,13.57
2023-04-27T22:28:10.330Z,13.55
2023-04-27T22:30:40.013Z,13.61
2023-04-27T22:33:08.073Z,13.61
2023-04-27T22:35:36.985Z,13.64
2023-04-27T22:38:06.996Z,13.63
2023-04-27T22:40:34.849Z,13.56
2023-04-27T22:43:02.599Z,13.61
2023-04-27T22:45:30.534Z,13.63
2023-04-27T22:47:58.614Z,13.62
2023-04-27T22:50:26.652Z,13.61
2023-04-27T22:52:54.403Z,13.69
2023-04-27T22:55:23.655Z,13.68
2023-04-27T22:57:53.626Z,13.69
2023-04-27T23:00:21.743Z,13.73
2023-04-27T23:02:49.686Z,13.79
2023-04-27T23:05:17.623Z,13.80
2023-04-27T23:07:46.316Z,13.81
2023-04-27T23:10:15.224Z,13.85
2023-04-27T23:12:44.379Z,13.83
2023-04-27T23:15:12.660Z,13.84
2023-04-27T23:17:40.532Z,13.77
2023-04-27T23:20:20.376Z,13.82
2023-04-27T23:22:54.917Z,13.80
2023-04-27T23:25:22.707Z,13.88
2023-04-27T23:27:52.698Z,13.81
2023-04-27T23:30:21.380Z,13.86
2023-04-27T23:32:49.254Z,13.87
2023-04-27T23:35:17.150Z,13.87
2023-04-27T23:37:45.022Z,13.90
2023-04-27T23:40:14.058Z,13.93
2023-04-27T23:42:41.945Z,13.93
2023-04-27T23:45:12.267Z,13.90
2023-04-27T23:47:40.116Z,13.87
2023-04-27T23:50:09.030Z,13.85
2023-04-27T23:52:37.091Z,13.85
2023-04-27T23:55:05.518Z,13.83
2023-04-27T23:57:33.303Z,13.85
